Time;durP1;ratioP1;P1;durP2;ratioP2;P2;SDS_P1;SDS_P2;PMS_P1;PMS_P2;Temp;Humidity;BMP_temperature;BMP_pressure;BME280_temperature;BME280_humidity;BME280_pressure;Samples;Min_cycle;Max_cycle;Signal;HPM_P1;HPM_P2
2023/08/26 00:00:52;;;;;;;12.15;10.93;;;;;;;23.08;72.48;99698.94;5084117;28;20205;-68
2023/08/26 00:03:21;;;;;;;12.25;10.95;;;;;;;23.08;72.69;99698.09;5086766;28;20215;-66
2023/08/26 00:05:50;;;;;;;13.60;11.35;;;;;;;23.04;72.79;99689.56;5088948;28;20625;-66
2023/08/26 00:08:18;;;;;;;11.10;9.93;;;;;;;22.98;72.99;99687.38;5087589;28;20691;-67
2023/08/26 00:10:46;;;;;;;11.88;10.73;;;;;;;22.95;73.55;99679.72;5089510;28;20721;-66
2023/08/26 00:13:15;;;;;;;14.40;10.98;;;;;;;22.94;73.89;99685.06;5088896;28;20638;-67
2023/08/26 00:15:43;;;;;;;12.13;10.93;;;;;;;22.92;74.16;99679.09;5088178;28;20252;-66
2023/08/26 00:18:11;;;;;;;11.98;10.68;;;;;;;22.89;74.08;99669.59;5086888;28;20568;-66
2023/08/26 00:20:41;;;;;;;11.63;10.43;;;;;;;22.85;74.17;99666.31;5084778;28;20201;-66
2023/08/26 00:23:09;;;;;;;11.88;10.65;;;;;;;22.84;74.18;99675.16;5082052;28;20200;-67
2023/08/26 00:25:37;;;;;;;13.77;11.43;;;;;;;22.83;74.57;99672.66;5079675;28;20283;-65
2023/08/26 00:28:05;;;;;;;12.38;10.48;;;;;;;22.83;74.91;99673.50;5086833;28;20204;-64
2023/08/26 00:30:33;;;;;;;12.35;11.15;;;;;;;22.83;74.75;99664.78;5087689;28;20193;-68
2023/08/26 00:33:01;;;;;;;11.20;10.05;;;;;;;22.85;75.34;99676.00;5091275;28;20205;-66
2023/08/26 00:35:29;;;;;;;14.35;11.40;;;;;;;22.83;75.13;99681.38;5088614;28;20236;-65
2023/08/26 00:37:59;;;;;;;12.10;10.82;;;;;;;22.85;74.65;99707.53;5081900;28;20690;-65
2023/08/26 00:40:27;;;;;;;12.20;10.98;;;;;;;22.84;74.52;99732.13;5075757;28;20816;-66
2023/08/26 00:42:55;;;;;;;14.27;11.23;;;;;;;22.84;75.17;99766.28;5092853;28;20206;-68
2023/08/26 00:45:23;;;;;;;12.75;11.45;;;;;;;22.84;75.47;99775.00;5079698;28;20299;-69
2023/08/26 00:47:52;;;;;;;12.65;11.48;;;;;;;22.82;75.52;99784.75;5083476;28;20660;-66
2023/08/26 00:50:20;;;;;;;11.23;10.07;;;;;;;22.77;75.92;99765.84;5098833;28;20283;-69
2023/08/26 00:52:48;;;;;;;11.63;10.25;;;;;;;22.70;76.10;99759.31;5089127;28;22256;-64
2023/08/26 00:55:18;;;;;;;10.40;8.32;;;;;;;22.67;75.92;99756.88;5087300;28;20652;-63
2023/08/26 00:57:46;;;;;;;10.48;9.15;;;;;;;22.57;76.25;99759.28;5086615;28;20220;-64
2023/08/26 01:00:15;;;;;;;8.82;7.93;;;;;;;22.51;76.90;99759.69;5088805;28;20204;-63
2023/08/26 01:02:43;;;;;;;8.77;6.15;;;;;;;22.45;76.00;99762.69;5087159;28;20205;-63
2023/08/26 01:05:11;;;;;;;6.38;5.55;;;;;;;22.35;76.02;99751.09;5079596;28;20206;-63
2023/08/26 01:07:40;;;;;;;6.97;5.63;;;;;;;22.29;75.77;99756.78;5082569;28;20197;-64
2023/08/26 01:10:09;;;;;;;7.03;5.80;;;;;;;22.29;76.40;99757.59;5088636;28;20193;-64
2023/08/26 01:12:49;;;;;;;7.57;4.90;;;;;;;22.32;76.68;99756.56;5085206;28;20284;-64
2023/08/26 01:15:18;;;;;;;6.03;5.28;;;;;;;22.31;76.39;99744.38;5089594;28;20232;-63
2023/08/26 01:17:46;;;;;;;7.30;4.68;;;;;;;22.30;76.25;99732.19;5094913;28;20221;-63
2023/08/26 01:20:15;;;;;;;4.60;4.10;;;;;;;22.31;76.10;99718.13;5079146;28;20205;-64
2023/08/26 01:22:47;;;;;;;5.45;3.42;;;;;;;22.29;75.03;99712.16;5088643;28;20204;-62
2023/08/26 01:25:18;;;;;;;4.00;3.13;;;;;;;22.24;74.36;99693.22;5091595;28;20663;-63
2023/08/26 01:27:46;;;;;;;4.50;3.00;;;;;;;22.26;74.24;99696.59;5089699;28;20683;-62
2023/08/26 01:30:14;;;;;;;3.95;2.97;;;;;;;22.24;72.93;99687.97;5088793;28;20553;-64
2023/08/26 01:32:47;;;;;;;4.30;2.90;;;;;;;22.21;72.87;99675.06;5086481;28;20590;-63
2023/08/26 01:35:22;;;;;;;4.40;3.08;;;;;;;22.22;73.49;99667.09;5086990;28;20324;-63
2023/08/26 01:37:52;;;;;;;4.13;3.72;;;;;;;22.25;74.37;99666.88;5090430;28;20305;-64
2023/08/26 01:40:25;;;;;;;3.90;3.40;;;;;;;22.24;75.44;99665.22;5089910;28;20211;-63
2023/08/26 01:42:54;;;;;;;4.68;3.65;;;;;;;22.28;76.62;99684.22;5088777;28;20655;-64
2023/08/26 01:45:23;;;;;;;4.68;3.83;;;;;;;22.32;77.31;99677.81;5094930;28;20292;-64
2023/08/26 01:47:51;;;;;;;5.18;3.13;;;;;;;22.31;76.60;99665.63;5089359;28;20205;-62
2023/08/26 01:50:19;;;;;;;4.45;3.00;;;;;;;22.21;75.75;99643.56;5082821;28;20232;-63
2023/08/26 01:52:47;;;;;;;6.32;3.15;;;;;;;22.13;75.65;99652.75;5087455;28;20204;-66
2023/08/26 01:55:15;;;;;;;3.75;3.35;;;;;;;22.06;75.78;99658.50;5091354;28;20215;-64
2023/08/26 01:57:44;;;;;;;3.80;3.40;;;;;;;22.03;76.63;99658.72;5093709;28;20213;-62
2023/08/26 02:00:13;;;;;;;4.25;3.85;;;;;;;22.01;77.54;99661.41;5087598;28;20200;-64
2023/08/26 02:02:41;;;;;;;4.20;3.40;;;;;;;21.99;77.50;99676.44;5091112;28;20197;-62
2023/08/26 02:05:09;;;;;;;3.95;3.35;;;;;;;21.99;78.18;99676.44;5089370;28;20212;-64
2023/08/26 02:07:37;;;;;;;5.43;2.90;;;;;;;21.99;78.79;99680.84;5089344;28;20227;-63
2023/08/26 02:10:07;;;;;;;7.53;2.65;;;;;;;21.99;78.79;99691.34;5091157;28;20556;-63
2023/08/26 02:12:34;;;;;;;4.63;3.50;;;;;;;21.92;78.29;99675.13;5085866;28;20204;-64
2023/08/26 02:15:05;;;;;;;8.52;2.97;;;;;;;21.85;78.26;99663.34;5092217;28;20673;-63
2023/08/26 02:17:33;;;;;;;3.88;3.30;;;;;;;21.80;77.98;99660.16;5086270;28;20213;-64
2023/08/26 02:20:03;;;;;;;4.10;2.97;;;;;;;21.73;77.54;99648.41;5087571;28;20643;-64
2023/08/26 02:22:31;;;;;;;3.80;3.17;;;;;;;21.66;78.35;99653.22;5083775;28;20664;-63
2023/08/26 02:24:58;;;;;;;3.45;3.15;;;;;;;21.65;78.54;99649.75;5083202;28;20687;-63
2023/08/26 02:27:26;;;;;;;4.60;2.88;;;;;;;21.62;78.55;99642.06;5086635;28;20231;-64
2023/08/26 02:29:54;;;;;;;6.45;3.22;;;;;;;21.59;78.65;99644.06;5083636;28;20204;-63
2023/08/26 02:32:24;;;;;;;4.32;3.17;;;;;;;21.54;78.88;99644.34;5088239;28;20211;-62
2023/08/26 02:34:52;;;;;;;3.75;3.40;;;;;;;21.53;79.15;99639.19;5094813;28;20297;-63
2023/08/26 02:37:21;;;;;;;6.38;4.00;;;;;;;21.54;78.94;99653.97;5087050;28;20220;-62
2023/08/26 02:39:49;;;;;;;4.78;4.03;;;;;;;21.54;79.39;99657.47;5089061;28;20213;-64
2023/08/26 02:42:17;;;;;;;3.95;3.42;;;;;;;21.56;79.66;99659.97;5092413;28;20197;-63
2023/08/26 02:44:46;;;;;;;4.13;3.10;;;;;;;21.59;79.64;99658.00;5090264;28;20258;-62
2023/08/26 02:47:13;;;;;;;4.65;3.60;;;;;;;21.59;79.92;99657.16;5087455;28;20197;-62
2023/08/26 02:49:43;;;;;;;7.00;3.45;;;;;;;21.60;80.00;99661.44;5088536;28;20602;-63
2023/08/26 02:52:11;;;;;;;3.63;3.20;;;;;;;21.60;79.69;99659.66;5079059;28;20312;-62
2023/08/26 02:54:38;;;;;;;6.00;3.70;;;;;;;21.61;79.73;99661.34;5090342;28;20219;-63
2023/08/26 02:57:06;;;;;;;5.88;3.30;;;;;;;21.59;79.81;99657.16;5089161;28;20285;-62
2023/08/26 02:59:34;;;;;;;7.07;3.55;;;;;;;21.59;80.11;99671.09;5099422;28;20206;-63
2023/08/26 03:02:04;;;;;;;4.03;3.63;;;;;;;21.58;80.58;99672.06;5103228;28;20647;-62
2023/08/26 03:04:32;;;;;;;7.63;3.90;;;;;;;21.56;80.93;99671.28;5091389;28;20590;-66
2023/08/26 03:07:01;;;;;;;5.40;3.90;;;;;;;21.55;81.24;99679.25;5084951;28;20212;-63
2023/08/26 03:09:29;;;;;;;4.45;4.00;;;;;;;21.51;81.19;99676.00;5083452;28;20535;-66
2023/08/26 03:11:59;;;;;;;6.00;3.53;;;;;;;21.47;81.39;99690.22;5090232;28;20683;-64
2023/08/26 03:14:27;;;;;;;4.80;4.10;;;;;;;21.42;81.75;99687.03;5087622;28;20248;-65
2023/08/26 03:16:55;;;;;;;8.45;3.60;;;;;;;21.41;81.78;99691.44;5091250;28;20736;-64
2023/08/26 03:19:23;;;;;;;4.45;4.05;;;;;;;21.40;81.92;99688.94;5087008;28;20247;-64
2023/08/26 03:21:51;;;;;;;4.40;4.00;;;;;;;21.43;82.19;99694.00;5082398;28;20262;-63
2023/08/26 03:24:20;;;;;;;6.40;4.20;;;;;;;21.40;82.00;99694.16;5089898;28;20744;-66
2023/08/26 03:26:48;;;;;;;4.47;4.07;;;;;;;21.39;82.09;99692.47;5080877;28;20247;-63
2023/08/26 03:29:16;;;;;;;5.80;3.97;;;;;;;21.36;82.15;99697.91;5089604;28;20732;-64
2023/08/26 03:31:45;;;;;;;7.70;4.10;;;;;;;21.33;81.52;99698.94;5088874;28;20192;-64
2023/08/26 03:34:13;;;;;;;4.90;4.40;;;;;;;21.36;81.23;99697.91;5091081;28;20232;-64
2023/08/26 03:36:41;;;;;;;5.00;4.50;;;;;;;21.39;81.02;99697.72;5090197;28;20205;-64
2023/08/26 03:39:09;;;;;;;5.38;4.88;;;;;;;21.39;80.77;99698.56;5088050;28;20610;-61
2023/08/26 03:41:39;;;;;;;7.07;4.70;;;;;;;21.41;80.48;99706.34;5089746;28;20205;-63
2023/08/26 03:44:07;;;;;;;5.05;4.60;;;;;;;21.44;80.61;99711.38;5083535;28;20196;-63
2023/08/26 03:46:35;;;;;;;5.00;4.13;;;;;;;21.44;80.58;99712.22;5083208;28;20718;-62
2023/08/26 03:49:03;;;;;;;6.65;5.00;;;;;;;21.48;80.57;99712.88;5092582;28;20204;-65
2023/08/26 03:51:31;;;;;;;5.70;4.78;;;;;;;21.48;80.43;99701.56;5074421;28;20318;-63
2023/08/26 03:53:59;;;;;;;8.30;5.20;;;;;;;21.45;80.37;99687.69;5088644;28;20244;-62
2023/08/26 03:56:28;;;;;;;6.15;4.72;;;;;;;21.53;80.53;99702.94;5088935;28;20679;-63
2023/08/26 03:58:57;;;;;;;7.55;5.03;;;;;;;21.56;80.05;99710.63;5088975;28;20566;-63
2023/08/26 04:01:25;;;;;;;7.78;5.00;;;;;;;21.59;80.17;99713.06;5086418;28;20293;-63
2023/08/26 04:03:54;;;;;;;5.70;4.60;;;;;;;21.63;80.19;99708.47;5087501;28;20219;-62
2023/08/26 04:06:22;;;;;;;5.03;4.53;;;;;;;21.66;80.13;99713.53;5081021;28;20609;-64
2023/08/26 04:08:51;;;;;;;5.53;4.97;;;;;;;21.68;80.02;99714.25;5090995;28;20659;-62
2023/08/26 04:11:19;;;;;;;7.30;4.93;;;;;;;21.69;80.09;99719.41;5097867;28;20196;-62
2023/08/26 04:13:47;;;;;;;8.40;4.90;;;;;;;21.72;79.77;99723.59;5089595;28;20291;-63
2023/08/26 04:16:19;;;;;;;6.15;5.55;;;;;;;21.74;79.59;99723.53;5085440;28;20205;-63
2023/08/26 04:18:47;;;;;;;6.03;5.43;;;;;;;21.77;79.83;99726.78;5090525;28;20216;-64
2023/08/26 04:21:15;;;;;;;6.30;5.32;;;;;;;21.80;79.74;99730.97;5087151;28;20298;-63
2023/08/26 04:23:43;;;;;;;6.40;5.10;;;;;;;21.80;79.80;99731.84;5086620;28;20652;-63
2023/08/26 04:26:11;;;;;;;5.82;5.00;;;;;;;21.82;79.77;99742.25;5084619;28;20829;-64
2023/08/26 04:28:39;;;;;;;5.95;5.35;;;;;;;21.82;79.53;99740.44;5095766;28;20640;-62
2023/08/26 04:31:07;;;;;;;6.55;5.95;;;;;;;21.86;79.71;99739.31;5088830;28;20648;-63
2023/08/26 04:33:37;;;;;;;6.55;5.95;;;;;;;21.87;79.59;99745.41;5085269;28;20286;-63
2023/08/26 04:36:05;;;;;;;6.95;6.22;;;;;;;21.92;79.71;99748.59;5095600;28;20216;-62
2023/08/26 04:38:33;;;;;;;7.45;6.13;;;;;;;22.00;79.60;99751.56;5087502;28;20743;-63
2023/08/26 04:41:02;;;;;;;7.18;5.90;;;;;;;22.06;79.58;99751.19;5095090;28;20672;-63
2023/08/26 04:43:30;;;;;;;7.18;6.47;;;;;;;22.13;79.17;99752.47;5083744;28;20209;-63
2023/08/26 04:45:58;;;;;;;8.73;6.22;;;;;;;22.19;78.92;99759.97;5089882;28;20219;-64
2023/08/26 04:48:28;;;;;;;6.93;6.00;;;;;;;22.28;78.51;99761.19;5098356;28;20199;-64
2023/08/26 04:50:58;;;;;;;6.63;5.97;;;;;;;22.36;78.32;99765.94;5093785;28;20212;-64
2023/08/26 04:53:26;;;;;;;7.30;6.03;;;;;;;22.42;77.80;99762.88;5091165;28;20254;-65
2023/08/26 04:55:54;;;;;;;7.43;6.63;;;;;;;22.46;77.83;99759.16;5086371;28;20577;-64
2023/08/26 04:58:22;;;;;;;7.40;6.70;;;;;;;22.51;77.54;99764.94;5093716;28;20633;-64
2023/08/26 05:00:50;;;;;;;7.78;6.97;;;;;;;22.59;77.67;99764.41;5091355;28;20216;-62
2023/08/26 05:03:19;;;;;;;7.60;6.90;;;;;;;22.67;77.22;99770.84;5082880;28;20216;-64
2023/08/26 05:05:47;;;;;;;6.82;6.10;;;;;;;22.76;76.41;99772.03;5087719;28;20238;-63
2023/08/26 05:08:17;;;;;;;10.45;7.10;;;;;;;22.82;76.38;99761.09;5091157;28;20200;-63
2023/08/26 05:10:45;;;;;;;6.72;5.93;;;;;;;22.89;76.19;99766.78;5088299;28;20204;-63
2023/08/26 05:13:13;;;;;;;7.18;6.40;;;;;;;23.00;75.92;99766.09;5085353;28;20651;-64
2023/08/26 05:15:41;;;;;;;6.68;6.03;;;;;;;23.11;75.21;99755.72;5090372;28;20200;-63
2023/08/26 05:18:09;;;;;;;6.38;5.75;;;;;;;23.20;74.44;99755.09;5093235;28;20227;-63
2023/08/26 05:20:37;;;;;;;6.43;5.80;;;;;;;23.31;73.85;99762.25;5085957;28;20205;-66
2023/08/26 05:23:05;;;;;;;6.80;6.13;;;;;;;23.40;73.34;99758.97;5095980;28;20239;-63
2023/08/26 05:25:35;;;;;;;7.10;6.40;;;;;;;23.50;72.97;99759.19;5091025;28;20200;-65
2023/08/26 05:28:05;;;;;;;8.45;6.30;;;;;;;23.60;72.84;99760.19;5074231;28;20717;-65
2023/08/26 05:30:34;;;;;;;7.15;6.45;;;;;;;23.61;71.90;99754.84;5088403;28;20550;-63
2023/08/26 05:33:02;;;;;;;6.65;5.95;;;;;;;23.58;71.94;99746.31;5088461;28;20254;-64
2023/08/26 05:35:30;;;;;;;7.20;5.80;;;;;;;23.50;71.97;99746.88;5088876;28;20300;-63
2023/08/26 05:37:58;;;;;;;7.50;6.60;;;;;;;23.37;72.67;99746.03;5088244;28;20212;-63
2023/08/26 05:40:28;;;;;;;7.22;6.53;;;;;;;23.27;72.96;99748.47;5095800;28;20204;-64
2023/08/26 05:42:59;;;;;;;7.05;6.30;;;;;;;23.20;74.04;99751.59;5086419;28;20659;-63
2023/08/26 05:45:27;;;;;;;9.82;6.78;;;;;;;23.14;74.10;99745.81;5089638;28;20224;-63
2023/08/26 05:47:55;;;;;;;7.38;6.25;;;;;;;23.17;74.47;99749.19;5087446;28;20201;-64
2023/08/26 05:50:24;;;;;;;7.20;6.50;;;;;;;23.20;74.46;99754.22;5082820;28;20568;-64
2023/08/26 05:52:52;;;;;;;9.48;7.40;;;;;;;23.14;73.87;99748.44;5086678;28;20216;-64
2023/08/26 05:55:19;;;;;;;8.02;7.20;;;;;;;23.13;73.97;99754.66;5085409;28;20201;-64
2023/08/26 05:57:48;;;;;;;8.98;7.30;;;;;;;23.13;74.28;99775.69;5080287;28;20209;-66
2023/08/26 06:00:18;;;;;;;7.47;6.80;;;;;;;23.13;74.43;99780.09;5083859;28;20209;-63
2023/08/26 06:02:46;;;;;;;8.38;7.40;;;;;;;23.24;74.42;99789.91;5094043;28;20720;-64
2023/08/26 06:05:14;;;;;;;7.93;7.15;;;;;;;23.44;73.87;99783.25;5092823;28;20582;-64
2023/08/26 06:07:41;;;;;;;7.78;6.95;;;;;;;24.31;71.76;99787.63;5086393;28;20208;-66
2023/08/26 06:10:13;;;;;;;8.23;6.65;;;;;;;25.22;68.14;99779.13;5094535;28;20204;-65
2023/08/26 06:12:41;;;;;;;7.50;6.68;;;;;;;25.90;65.13;99785.28;5091412;28;20220;-64
2023/08/26 06:15:09;;;;;;;6.40;5.80;;;;;;;27.11;62.18;99773.59;5088174;28;20220;-65
2023/08/26 06:17:41;;;;;;;8.35;6.20;;;;;;;28.50;57.54;99776.47;5085134;28;20288;-65
2023/08/26 06:20:10;;;;;;;7.15;6.30;;;;;;;30.25;51.53;99779.44;5082030;28;20228;-64
2023/08/26 06:22:41;;;;;;;9.45;6.88;;;;;;;31.57;46.43;99774.13;5086543;28;20215;-65
2023/08/26 06:25:09;;;;;;;6.65;5.85;;;;;;;32.54;45.05;99767.44;5090914;28;20257;-67
2023/08/26 06:27:37;;;;;;;6.75;6.05;;;;;;;33.78;41.36;99771.56;5092275;28;20216;-64
2023/08/26 06:30:06;;;;;;;6.60;5.90;;;;;;;34.70;39.77;99777.03;5086479;28;20220;-69
2023/08/26 06:32:34;;;;;;;6.13;5.50;;;;;;;35.80;37.10;99764.66;5089496;28;20284;-63
2023/08/26 06:35:05;;;;;;;5.78;5.18;;;;;;;36.84;35.24;99777.69;5083216;28;20229;-63
2023/08/26 06:37:33;;;;;;;7.70;5.88;;;;;;;37.74;32.71;99778.69;5090152;28;20212;-63
2023/08/26 06:40:01;;;;;;;7.68;5.72;;;;;;;38.45;31.92;99775.63;5089065;28;20219;-64
2023/08/26 06:42:29;;;;;;;8.05;5.65;;;;;;;39.18;30.02;99774.75;5083918;28;20250;-65
2023/08/26 06:44:58;;;;;;;10.73;5.85;;;;;;;39.65;29.19;99786.25;5084736;28;20197;-64
2023/08/26 06:47:26;;;;;;;6.28;5.43;;;;;;;39.86;28.72;99786.00;5092091;28;20570;-65
2023/08/26 06:49:54;;;;;;;6.90;5.70;;;;;;;40.18;28.71;99781.50;5082970;28;20231;-67
2023/08/26 06:52:23;;;;;;;5.93;4.95;;;;;;;40.77;27.80;99790.22;5081271;28;20208;-63
2023/08/26 06:54:52;;;;;;;10.45;6.22;;;;;;;41.19;26.73;99779.66;5084878;28;20200;-64
2023/08/26 06:57:19;;;;;;;6.10;5.43;;;;;;;41.72;26.00;99793.44;5089795;28;20207;-65
2023/08/26 06:59:48;;;;;;;6.95;5.70;;;;;;;41.72;25.74;99798.84;5083681;28;20219;-66
2023/08/26 07:02:16;;;;;;;7.97;4.97;;;;;;;41.63;25.94;99793.94;5088392;28;20212;-65
2023/08/26 07:04:44;;;;;;;9.88;5.90;;;;;;;41.84;25.32;99798.91;5091447;28;20204;-65
2023/08/26 07:07:13;;;;;;;6.22;5.53;;;;;;;41.83;25.19;99796.41;5094165;28;20203;-63
2023/08/26 07:09:42;;;;;;;6.30;5.70;;;;;;;41.64;25.58;99796.41;5090260;28;20230;-65
2023/08/26 07:12:10;;;;;;;7.68;6.03;;;;;;;41.41;25.83;99788.16;5083499;28;20291;-62
2023/08/26 07:14:38;;;;;;;5.80;5.18;;;;;;;41.43;26.21;99786.91;5083489;28;20290;-64
2023/08/26 07:17:06;;;;;;;6.35;5.65;;;;;;;41.80;25.58;99791.47;5083185;28;20285;-63
2023/08/26 07:19:35;;;;;;;7.95;5.82;;;;;;;42.05;25.27;99791.34;5083619;28;20243;-64
2023/08/26 07:22:03;;;;;;;6.93;5.93;;;;;;;42.34;24.67;99795.94;5088224;28;20622;-64
2023/08/26 07:24:31;;;;;;;6.20;5.70;;;;;;;42.23;24.89;99794.81;5084468;28;20201;-63
2023/08/26 07:27:01;;;;;;;9.32;6.18;;;;;;;42.31;24.74;99795.56;5084930;28;20639;-64
2023/08/26 07:29:32;;;;;;;8.48;5.72;;;;;;;42.43;24.31;99799.16;5090898;28;20305;-63
2023/08/26 07:31:59;;;;;;;6.38;5.78;;;;;;;42.74;24.53;99792.59;5093546;28;20199;-66
2023/08/26 07:34:28;;;;;;;7.65;6.18;;;;;;;43.04;23.88;99806.03;5085440;28;20262;-65
2023/08/26 07:36:56;;;;;;;6.28;5.43;;;;;;;43.39;23.70;99791.66;5082928;28;20287;-65
2023/08/26 07:39:24;;;;;;;5.95;5.38;;;;;;;44.02;22.76;99787.25;5091085;28;20222;-67
2023/08/26 07:41:52;;;;;;;9.65;5.10;;;;;;;44.53;22.25;99783.53;5089220;28;20312;-69
2023/08/26 07:44:21;;;;;;;5.90;5.30;;;;;;;44.73;21.82;99785.78;5086887;28;20216;-69
2023/08/26 07:46:50;;;;;;;5.57;5.07;;;;;;;45.04;21.26;99797.94;5082679;28;20551;-72
2023/08/26 07:49:21;;;;;;;7.85;5.10;;;;;;;45.19;21.02;99796.53;5083278;28;20201;-69
2023/08/26 07:54:33;;;;;;;6.10;5.20;;;;;;;45.01;20.65;99795.72;5071040;28;20199;-65
2023/08/26 07:57:02;;;;;;;7.07;4.70;;;;;;;45.06;21.04;99795.00;5092025;28;20569;-67
2023/08/26 07:59:31;;;;;;;6.75;4.53;;;;;;;45.07;20.87;99799.34;5098412;28;20236;-66
2023/08/26 08:01:59;;;;;;;8.93;4.93;;;;;;;44.65;20.83;99810.63;5091287;28;20216;-67
2023/08/26 08:04:27;;;;;;;5.18;4.28;;;;;;;44.28;21.36;99818.44;5093235;28;20200;-65
2023/08/26 08:06:57;;;;;;;5.82;4.57;;;;;;;44.37;21.61;99797.94;5094032;28;20204;-66
2023/08/26 08:09:25;;;;;;;9.00;4.72;;;;;;;44.92;20.96;99802.66;5075064;28;20659;-67
2023/08/26 08:11:53;;;;;;;5.38;4.93;;;;;;;45.34;20.31;99804.91;5084334;28;20207;-68
2023/08/26 08:14:21;;;;;;;6.35;4.72;;;;;;;45.32;20.79;99804.31;5085666;28;20208;-67
2023/08/26 08:16:50;;;;;;;6.05;4.30;;;;;;;45.75;19.90;99794.53;5084171;28;20207;-69
2023/08/26 08:19:18;;;;;;;5.20;4.80;;;;;;;46.03;19.08;99798.91;5084774;28;20206;-67
2023/08/26 08:21:46;;;;;;;6.15;4.95;;;;;;;45.71;19.64;99796.13;5084424;28;20289;-66
2023/08/26 08:24:15;;;;;;;6.38;5.20;;;;;;;45.28;20.27;99795.00;5078735;28;20248;-67
2023/08/26 08:26:44;;;;;;;7.95;4.63;;;;;;;45.13;20.74;99789.38;5083826;28;20228;-67
2023/08/26 08:29:12;;;;;;;9.65;4.90;;;;;;;45.45;19.76;99803.97;5084479;28;20199;-66
2023/08/26 08:31:40;;;;;;;5.55;5.03;;;;;;;44.68;20.50;99798.47;5073383;28;20203;-64
2023/08/26 08:34:09;;;;;;;7.82;4.65;;;;;;;44.09;20.86;99798.78;5080563;28;20326;-66
2023/08/26 08:36:37;;;;;;;6.22;4.40;;;;;;;43.69;21.88;99802.34;5087787;28;20560;-65
2023/08/26 08:39:06;;;;;;;5.47;4.63;;;;;;;43.79;21.43;99797.13;5085074;28;20196;-66
2023/08/26 08:41:36;;;;;;;6.05;4.45;;;;;;;43.79;21.77;99797.13;5085137;28;20689;-64
2023/08/26 08:44:10;;;;;;;5.70;4.03;;;;;;;43.86;21.86;99795.09;5084862;28;20199;-65
2023/08/26 08:46:39;;;;;;;5.72;3.95;;;;;;;44.05;21.54;99806.59;5084077;28;20627;-66
2023/08/26 08:49:09;;;;;;;3.80;3.47;;;;;;;44.14;21.26;99809.72;5083715;28;20650;-66
2023/08/26 08:51:37;;;;;;;7.68;4.25;;;;;;;44.42;20.95;99806.19;5089672;28;20536;-64
2023/08/26 08:54:07;;;;;;;5.85;4.10;;;;;;;44.14;21.10;99798.88;5090860;28;20196;-64
2023/08/26 08:56:36;;;;;;;5.78;4.03;;;;;;;43.41;21.84;99801.19;5088791;28;20204;-63
2023/08/26 08:59:06;;;;;;;6.47;3.63;;;;;;;43.27;22.18;99793.53;5078973;28;20197;-64
2023/08/26 09:01:35;;;;;;;4.13;3.30;;;;;;;43.23;21.89;99797.81;5085098;28;20311;-63
2023/08/26 09:04:07;;;;;;;4.00;3.25;;;;;;;43.09;21.82;99797.25;5084958;28;20208;-65
2023/08/26 09:06:37;;;;;;;5.50;3.00;;;;;;;43.30;21.16;99798.50;5079382;28;20663;-65
2023/08/26 09:09:10;;;;;;;5.25;3.03;;;;;;;43.35;20.97;99798.63;5079514;28;20195;-65
2023/08/26 09:11:53;;;;;;;6.85;3.47;;;;;;;43.04;21.55;99810.66;5090838;28;20261;-64
2023/08/26 09:14:21;;;;;;;5.07;3.25;;;;;;;42.82;21.74;99813.13;5089317;28;20200;-64
2023/08/26 09:16:49;;;;;;;4.20;3.22;;;;;;;42.28;22.60;99796.06;5090737;28;20208;-64
2023/08/26 09:19:17;;;;;;;5.28;3.03;;;;;;;41.71;23.01;99797.16;5090405;28;20204;-65
2023/08/26 09:21:47;;;;;;;5.30;2.72;;;;;;;41.69;22.59;99804.69;5090975;28;20219;-64
2023/08/26 09:24:16;;;;;;;2.85;2.50;;;;;;;41.22;22.53;99804.38;5090566;28;20286;-65
2023/08/26 09:26:58;;;;;;;5.07;3.55;;;;;;;40.94;23.49;99806.69;5092640;28;20208;-65
2023/08/26 09:29:26;;;;;;;3.90;3.42;;;;;;;40.55;24.31;99804.09;5090777;28;20679;-65
2023/08/26 09:31:55;;;;;;;3.83;3.10;;;;;;;40.17;25.16;99803.28;5089687;28;20624;-63
2023/08/26 09:34:24;;;;;;;5.60;2.88;;;;;;;40.13;25.30;99805.59;5085269;28;20322;-65
2023/08/26 09:36:54;;;;;;;4.40;3.05;;;;;;;39.66;24.90;99804.94;5096341;28;20200;-63
2023/08/26 09:39:22;;;;;;;3.20;2.90;;;;;;;38.85;25.86;99814.22;5096453;28;20704;-63
2023/08/26 09:41:51;;;;;;;6.13;3.65;;;;;;;38.27;27.04;99819.25;5092154;28;20686;-65
2023/08/26 09:44:21;;;;;;;3.38;2.60;;;;;;;37.30;27.21;99830.94;5094135;28;20204;-63
2023/08/26 09:46:49;;;;;;;2.42;2.20;;;;;;;36.45;27.80;99829.16;5094226;28;20192;-65
2023/08/26 09:49:19;;;;;;;3.63;2.30;;;;;;;36.27;28.55;99818.84;5098157;28;20205;-64
2023/08/26 09:51:48;;;;;;;3.95;2.35;;;;;;;36.16;28.56;99819.34;5093805;28;20197;-63
2023/08/26 09:54:19;;;;;;;4.25;2.58;;;;;;;36.13;28.94;99812.53;5094110;28;20618;-64
2023/08/26 09:56:47;;;;;;;3.70;2.90;;;;;;;36.32;29.08;99815.63;5093744;28;20193;-64
2023/08/26 09:59:16;;;;;;;3.70;2.60;;;;;;;36.62;29.17;99810.97;5093766;28;20247;-62
2023/08/26 10:01:45;;;;;;;4.18;2.90;;;;;;;36.99;29.07;99817.94;5107313;28;20212;-65
2023/08/26 10:04:16;;;;;;;5.82;2.30;;;;;;;37.11;27.33;99807.47;5104305;28;20201;-64
2023/08/26 10:06:52;;;;;;;5.10;2.10;;;;;;;36.61;27.42;99815.53;5093470;28;20212;-64
2023/08/26 10:09:28;;;;;;;3.95;2.40;;;;;;;35.46;29.84;99818.84;5093438;28;20212;-64
2023/08/26 10:12:00;;;;;;;2.55;2.35;;;;;;;35.36;29.85;99812.91;5093398;28;20201;-64
2023/08/26 10:14:30;;;;;;;3.45;2.40;;;;;;;36.09;29.32;99805.88;5093438;28;20257;-64
2023/08/26 10:17:02;;;;;;;4.45;2.30;;;;;;;36.66;27.30;99802.34;5093488;28;20334;-63
2023/08/26 10:19:31;;;;;;;3.80;2.22;;;;;;;36.02;28.40;99810.34;5089365;28;20197;-64
2023/08/26 10:22:00;;;;;;;8.45;2.70;;;;;;;35.30;29.49;99811.78;5082573;28;20296;-64
2023/08/26 10:24:29;;;;;;;2.58;2.38;;;;;;;34.95;30.03;99821.31;5100624;28;20735;-64
2023/08/26 10:26:58;;;;;;;2.47;2.00;;;;;;;34.15;30.95;99827.06;5093554;28;20209;-64
2023/08/26 10:29:27;;;;;;;3.20;2.20;;;;;;;33.45;32.99;99819.75;5078877;28;20211;-64
2023/08/26 10:31:56;;;;;;;4.13;2.50;;;;;;;32.80;34.34;99819.78;5093223;28;20197;-65
2023/08/26 10:34:31;;;;;;;3.55;2.50;;;;;;;32.30;35.75;99828.72;5093310;28;20209;-63
2023/08/26 10:36:59;;;;;;;2.88;2.42;;;;;;;31.97;36.28;99818.78;5093198;28;20197;-63
2023/08/26 10:39:29;;;;;;;3.70;2.50;;;;;;;31.65;37.27;99824.78;5091964;28;20656;-64
2023/08/26 10:42:16;;;;;;;4.70;2.65;;;;;;;31.29;37.79;99810.72;5101273;28;20250;-64
2023/08/26 10:44:47;;;;;;;4.10;2.65;;;;;;;30.99;38.63;99828.00;5101265;28;20203;-63
2023/08/26 10:47:40;;;;;;;3.17;2.30;;;;;;;30.74;39.76;99819.78;5093215;28;20629;-64
2023/08/26 10:50:19;;;;;;;3.35;2.38;;;;;;;30.51;40.27;99815.91;5092880;28;20724;-66
2023/08/26 10:52:50;;;;;;;2.42;2.22;;;;;;;30.38;41.00;99818.94;5084855;28;20197;-64
2023/08/26 10:55:24;;;;;;;3.85;3.00;;;;;;;30.20;41.39;99815.44;5100869;28;20200;-62
2023/08/26 10:58:02;;;;;;;2.53;2.30;;;;;;;29.90;42.00;99813.88;5091523;28;20295;-63
2023/08/26 11:00:30;;;;;;;4.10;2.40;;;;;;;29.72;42.80;99812.00;5092841;28;20930;-63
2023/08/26 11:03:00;;;;;;;3.63;2.97;;;;;;;29.63;43.05;99812.03;5092436;28;20290;-65
2023/08/26 11:05:28;;;;;;;3.67;2.40;;;;;;;29.55;43.18;99810.09;5092513;28;20200;-63
2023/08/26 11:07:57;;;;;;;4.43;2.72;;;;;;;29.45;43.65;99817.25;5092782;28;20208;-63
2023/08/26 11:10:28;;;;;;;5.07;3.10;;;;;;;29.40;44.02;99820.34;5092442;28;20209;-62
2023/08/26 11:12:56;;;;;;;4.97;2.78;;;;;;;29.41;44.11;99818.50;5082200;28;20248;-62
2023/08/26 11:15:24;;;;;;;4.50;2.40;;;;;;;29.53;43.82;99804.06;5087975;28;20663;-62
2023/08/26 11:17:53;;;;;;;5.72;2.67;;;;;;;29.72;43.72;99814.66;5092216;28;20204;-63
2023/08/26 11:20:21;;;;;;;2.58;2.35;;;;;;;29.92;43.48;99811.91;5092147;28;20204;-63
2023/08/26 11:22:50;;;;;;;2.70;2.50;;;;;;;30.05;41.96;99807.94;5087157;28;20240;-63
2023/08/26 11:25:18;;;;;;;2.85;2.30;;;;;;;30.15;41.03;99807.84;5092380;28;20757;-62
2023/08/26 11:27:48;;;;;;;2.58;1.92;;;;;;;30.54;41.17;99802.31;5091895;28;20337;-64
2023/08/26 11:30:16;;;;;;;1.80;1.70;;;;;;;30.90;39.65;99802.31;5091035;28;20610;-65
2023/08/26 11:32:49;;;;;;;2.03;1.83;;;;;;;31.03;38.78;99784.09;5104773;28;20724;-63
2023/08/26 11:35:18;;;;;;;3.08;2.08;;;;;;;31.09;37.94;99786.16;5080067;28;20287;-63
2023/08/26 11:37:48;;;;;;;3.13;1.92;;;;;;;31.13;37.80;99787.50;5078666;28;20233;-65
2023/08/26 11:40:16;;;;;;;4.55;1.85;;;;;;;31.25;37.39;99775.59;5091668;28;20671;-64
2023/08/26 11:42:44;;;;;;;2.95;1.95;;;;;;;31.27;36.26;99781.63;5091938;28;20787;-62